sensor_id;sensor_type;location;lat;lon;timestamp;pressure;altitude;pressure_sealevel;temperature;humidity
30708;BME280;17458;48.958;8.284;2023-06-22T00:01:09;100251.69;;;25.15;66.45
30708;BME280;17458;48.958;8.284;2023-06-22T00:03:56;100250.88;;;25.08;66.65
30708;BME280;17458;48.958;8.284;2023-06-22T00:06:40;100244.66;;;24.95;67.36
30708;BME280;17458;48.958;8.284;2023-06-22T00:09:24;100250.22;;;24.79;67.47
30708;BME280;17458;48.958;8.284;2023-06-22T00:12:08;100277.19;;;25.01;66.67
30708;BME280;17458;48.958;8.284;2023-06-22T00:14:57;100333.50;;;24.80;67.63
30708;BME280;17458;48.958;8.284;2023-06-22T00:17:41;100434.16;;;24.55;69.00
30708;BME280;17458;48.958;8.284;2023-06-22T00:20:26;100529.16;;;24.67;70.19
30708;BME280;17458;48.958;8.284;2023-06-22T00:23:11;100559.13;;;24.31;73.26
30708;BME280;17458;48.958;8.284;2023-06-22T00:25:57;100470.34;;;24.57;72.46
30708;BME280;17458;48.958;8.284;2023-06-22T00:28:41;100360.06;;;24.35;74.82
30708;BME280;17458;48.958;8.284;2023-06-22T00:31:25;100292.28;;;24.24;77.51
30708;BME280;17458;48.958;8.284;2023-06-22T00:34:11;100258.00;;;24.00;79.98
30708;BME280;17458;48.958;8.284;2023-06-22T00:36:55;100287.91;;;23.88;81.51
30708;BME280;17458;48.958;8.284;2023-06-22T00:39:42;100288.81;;;23.90;81.39
30708;BME280;17458;48.958;8.284;2023-06-22T00:42:26;100291.66;;;23.71;83.42
30708;BME280;17458;48.958;8.284;2023-06-22T00:45:10;100288.03;;;23.68;83.69
30708;BME280;17458;48.958;8.284;2023-06-22T00:47:56;100283.59;;;23.52;84.75
30708;BME280;17458;48.958;8.284;2023-06-22T00:50:42;100287.22;;;23.38;85.33
30708;BME280;17458;48.958;8.284;2023-06-22T00:53:26;100304.34;;;23.47;85.27
30708;BME280;17458;48.958;8.284;2023-06-22T00:56:12;100304.38;;;23.30;86.14
30708;BME280;17458;48.958;8.284;2023-06-22T00:58:58;100305.31;;;23.29;86.34
30708;BME280;17458;48.958;8.284;2023-06-22T01:01:43;100301.69;;;23.26;85.92
30708;BME280;17458;48.958;8.284;2023-06-22T01:04:35;100298.03;;;23.51;84.40
30708;BME280;17458;48.958;8.284;2023-06-22T01:10:22;100293.53;;;23.32;86.07
30708;BME280;17458;48.958;8.284;2023-06-22T01:13:16;100287.28;;;23.13;86.50
30708;BME280;17458;48.958;8.284;2023-06-22T01:16:09;100282.75;;;23.03;87.23
30708;BME280;17458;48.958;8.284;2023-06-22T01:18:58;100277.38;;;22.79;88.46
30708;BME280;17458;48.958;8.284;2023-06-22T01:21:46;100289.09;;;22.88;88.05
30708;BME280;17458;48.958;8.284;2023-06-22T01:24:48;100295.28;;;23.48;84.76
30708;BME280;17458;48.958;8.284;2023-06-22T01:30:27;100299.03;;;23.11;86.49
30708;BME280;17458;48.958;8.284;2023-06-22T01:33:15;100299.00;;;23.29;85.41
30708;BME280;17458;48.958;8.284;2023-06-22T01:36:01;100301.69;;;23.29;85.75
30708;BME280;17458;48.958;8.284;2023-06-22T01:38:45;100295.31;;;23.56;83.94
30708;BME280;17458;48.958;8.284;2023-06-22T01:41:35;100306.19;;;23.38;84.85
30708;BME280;17458;48.958;8.284;2023-06-22T01:44:20;100307.13;;;23.20;85.74
30708;BME280;17458;48.958;8.284;2023-06-22T01:47:06;100299.03;;;23.02;86.00
30708;BME280;17458;48.958;8.284;2023-06-22T01:49:51;100291.78;;;23.08;85.97
30708;BME280;17458;48.958;8.284;2023-06-22T01:52:38;100302.56;;;23.34;85.07
30708;BME280;17458;48.958;8.284;2023-06-22T01:55:22;100304.31;;;23.59;83.02
30708;BME280;17458;48.958;8.284;2023-06-22T01:58:07;100302.56;;;23.54;83.40
30708;BME280;17458;48.958;8.284;2023-06-22T02:01:09;100302.50;;;23.69;82.28
30708;BME280;17458;48.958;8.284;2023-06-22T02:04:05;100287.16;;;23.63;82.67
30708;BME280;17458;48.958;8.284;2023-06-22T02:06:55;100288.97;;;23.61;82.31
30708;BME280;17458;48.958;8.284;2023-06-22T02:09:42;100294.38;;;23.58;82.32
30708;BME280;17458;48.958;8.284;2023-06-22T02:12:29;100289.91;;;23.38;83.16
30708;BME280;17458;48.958;8.284;2023-06-22T02:15:15;100289.00;;;23.36;83.25
30708;BME280;17458;48.958;8.284;2023-06-22T02:18:00;100290.84;;;23.29;84.32
30708;BME280;17458;48.958;8.284;2023-06-22T02:20:44;100289.06;;;23.26;83.98
30708;BME280;17458;48.958;8.284;2023-06-22T02:23:28;100290.81;;;23.32;83.99
30708;BME280;17458;48.958;8.284;2023-06-22T02:26:13;100292.63;;;23.34;83.62
30708;BME280;17458;48.958;8.284;2023-06-22T02:28:57;100295.38;;;23.19;84.44
30708;BME280;17458;48.958;8.284;2023-06-22T02:31:40;100294.44;;;23.31;83.96
30708;BME280;17458;48.958;8.284;2023-06-22T02:34:25;100280.06;;;23.06;84.13
30708;BME280;17458;48.958;8.284;2023-06-22T02:37:09;100263.84;;;22.79;86.14
30708;BME280;17458;48.958;8.284;2023-06-22T02:39:58;100264.72;;;22.91;85.85
30708;BME280;17458;48.958;8.284;2023-06-22T02:42:41;100262.91;;;23.07;85.03
30708;BME280;17458;48.958;8.284;2023-06-22T02:45:26;100260.22;;;22.90;85.04
30708;BME280;17458;48.958;8.284;2023-06-22T02:48:10;100261.16;;;22.83;85.69
30708;BME280;17458;48.958;8.284;2023-06-22T02:50:55;100264.75;;;22.46;87.81
30708;BME280;17458;48.958;8.284;2023-06-22T02:53:40;100252.09;;;22.40;87.63
30708;BME280;17458;48.958;8.284;2023-06-22T02:56:28;100254.81;;;22.45;88.01
30708;BME280;17458;48.958;8.284;2023-06-22T02:59:16;100245.78;;;22.35;87.84
30708;BME280;17458;48.958;8.284;2023-06-22T03:02:02;100247.56;;;22.25;88.62
30708;BME280;17458;48.958;8.284;2023-06-22T03:04:49;100232.22;;;22.61;87.26
30708;BME280;17458;48.958;8.284;2023-06-22T03:07:33;100242.19;;;22.73;85.76
30708;BME280;17458;48.958;8.284;2023-06-22T03:10:17;100246.66;;;22.89;84.44
30708;BME280;17458;48.958;8.284;2023-06-22T03:13:01;100245.81;;;22.84;84.47
30708;BME280;17458;48.958;8.284;2023-06-22T03:15:45;100256.63;;;22.73;84.60
30708;BME280;17458;48.958;8.284;2023-06-22T03:18:30;100244.84;;;22.74;84.83
30708;BME280;17458;48.958;8.284;2023-06-22T03:21:14;100250.28;;;22.73;85.00
30708;BME280;17458;48.958;8.284;2023-06-22T03:23:59;100252.09;;;22.57;85.57
30708;BME280;17458;48.958;8.284;2023-06-22T03:26:43;100249.38;;;22.69;84.87
30708;BME280;17458;48.958;8.284;2023-06-22T03:29:29;100253.88;;;22.62;84.39
30708;BME280;17458;48.958;8.284;2023-06-22T03:32:13;100247.56;;;22.76;84.01
30708;BME280;17458;48.958;8.284;2023-06-22T03:34:57;100244.00;;;22.58;85.12
30708;BME280;17458;48.958;8.284;2023-06-22T03:37:43;100237.66;;;22.78;84.45
30708;BME280;17458;48.958;8.284;2023-06-22T03:40:27;100239.47;;;22.48;86.29
30708;BME280;17458;48.958;8.284;2023-06-22T03:43:11;100237.66;;;22.67;85.41
30708;BME280;17458;48.958;8.284;2023-06-22T03:45:55;100235.84;;;22.68;84.61
30708;BME280;17458;48.958;8.284;2023-06-22T03:48:40;100210.63;;;22.46;85.75
30708;BME280;17458;48.958;8.284;2023-06-22T03:51:24;100218.69;;;22.61;85.39
30708;BME280;17458;48.958;8.284;2023-06-22T03:54:08;100231.31;;;22.60;85.60
30708;BME280;17458;48.958;8.284;2023-06-22T03:56:52;100226.84;;;22.70;84.17
30708;BME280;17458;48.958;8.284;2023-06-22T03:59:36;100229.53;;;22.66;84.30
30708;BME280;17458;48.958;8.284;2023-06-22T04:02:20;100225.03;;;22.78;83.92
30708;BME280;17458;48.958;8.284;2023-06-22T04:05:04;100229.53;;;22.81;83.51
30708;BME280;17458;48.958;8.284;2023-06-22T04:07:48;100223.25;;;22.59;84.58
30708;BME280;17458;48.958;8.284;2023-06-22T04:10:32;100213.31;;;22.59;85.41
30708;BME280;17458;48.958;8.284;2023-06-22T04:13:17;100216.00;;;22.61;85.39
30708;BME280;17458;48.958;8.284;2023-06-22T04:16:01;100212.38;;;22.60;84.43
30708;BME280;17458;48.958;8.284;2023-06-22T04:18:45;100216.88;;;22.98;83.28
30708;BME280;17458;48.958;8.284;2023-06-22T04:21:28;100215.13;;;22.86;84.12
30708;BME280;17458;48.958;8.284;2023-06-22T04:24:12;100217.81;;;22.85;83.94
30708;BME280;17458;48.958;8.284;2023-06-22T04:26:56;100214.22;;;22.83;83.92
30708;BME280;17458;48.958;8.284;2023-06-22T04:29:40;100214.19;;;22.69;85.16
30708;BME280;17458;48.958;8.284;2023-06-22T04:32:33;100215.06;;;22.98;83.22
30708;BME280;17458;48.958;8.284;2023-06-22T04:35:17;100211.47;;;22.92;83.51
30708;BME280;17458;48.958;8.284;2023-06-22T04:38:01;100198.75;;;23.17;81.66
30708;BME280;17458;48.958;8.284;2023-06-22T04:40:47;100204.16;;;23.24;81.47
30708;BME280;17458;48.958;8.284;2023-06-22T04:43:31;100205.19;;;22.78;83.26
30708;BME280;17458;48.958;8.284;2023-06-22T04:46:14;100203.38;;;22.86;83.89
30708;BME280;17458;48.958;8.284;2023-06-22T04:48:59;100193.44;;;22.88;83.55
30708;BME280;17458;48.958;8.284;2023-06-22T04:51:43;100188.94;;;22.78;84.51
30708;BME280;17458;48.958;8.284;2023-06-22T04:54:27;100192.50;;;23.00;82.24
30708;BME280;17458;48.958;8.284;2023-06-22T04:57:11;100184.44;;;22.52;85.07
30708;BME280;17458;48.958;8.284;2023-06-22T04:59:56;100191.56;;;23.05;82.91
30708;BME280;17458;48.958;8.284;2023-06-22T05:02:40;100187.00;;;23.19;82.41
30708;BME280;17458;48.958;8.284;2023-06-22T05:05:25;100181.56;;;23.25;81.70
30708;BME280;17458;48.958;8.284;2023-06-22T05:08:09;100184.22;;;23.38;81.31
30708;BME280;17458;48.958;8.284;2023-06-22T05:10:53;100180.59;;;23.42;81.26
30708;BME280;17458;48.958;8.284;2023-06-22T05:13:36;100178.03;;;23.05;82.68
30708;BME280;17458;48.958;8.284;2023-06-22T05:16:21;100178.75;;;23.45;81.35
30708;BME280;17458;48.958;8.284;2023-06-22T05:19:08;100177.97;;;23.25;80.63
30708;BME280;17458;48.958;8.284;2023-06-22T05:21:52;100176.91;;;23.59;79.95
30708;BME280;17458;48.958;8.284;2023-06-22T05:24:36;100170.84;;;23.00;82.46
30708;BME280;17458;48.958;8.284;2023-06-22T05:27:20;100162.69;;;23.06;83.50
30708;BME280;17458;48.958;8.284;2023-06-22T05:30:05;100159.81;;;23.42;80.41
30708;BME280;17458;48.958;8.284;2023-06-22T05:32:50;100161.50;;;23.69;78.49
30708;BME280;17458;48.958;8.284;2023-06-22T05:35:36;100175.88;;;23.83;78.80
30708;BME280;17458;48.958;8.284;2023-06-22T05:38:20;100170.63;;;23.53;78.85
30708;BME280;17458;48.958;8.284;2023-06-22T05:41:05;100167.66;;;23.94;77.89
30708;BME280;17458;48.958;8.284;2023-06-22T05:43:49;100173.22;;;23.73;77.16
30708;BME280;17458;48.958;8.284;2023-06-22T05:46:34;100167.63;;;23.97;76.50
30708;BME280;17458;48.958;8.284;2023-06-22T05:49:18;100171.06;;;24.25;77.02
30708;BME280;17458;48.958;8.284;2023-06-22T05:52:03;100171.19;;;24.03;76.23
30708;BME280;17458;48.958;8.284;2023-06-22T05:54:47;100170.09;;;24.33;75.70
30708;BME280;17458;48.958;8.284;2023-06-22T05:57:31;100167.63;;;23.98;77.04
30708;BME280;17458;48.958;8.284;2023-06-22T06:00:16;100177.19;;;24.45;74.94
30708;BME280;17458;48.958;8.284;2023-06-22T06:03:00;100181.03;;;24.24;75.57
30708;BME280;17458;48.958;8.284;2023-06-22T06:05:47;100180.94;;;24.33;75.19
30708;BME280;17458;48.958;8.284;2023-06-22T06:08:31;100169.19;;;24.33;74.68
30708;BME280;17458;48.958;8.284;2023-06-22T06:11:15;100165.41;;;24.51;74.22
30708;BME280;17458;48.958;8.284;2023-06-22T06:13:59;100165.22;;;24.69;74.22
30708;BME280;17458;48.958;8.284;2023-06-22T06:16:43;100165.94;;;24.85;73.79
30708;BME280;17458;48.958;8.284;2023-06-22T06:19:27;100160.47;;;24.94;74.15
30708;BME280;17458;48.958;8.284;2023-06-22T06:22:11;100162.84;;;25.21;71.48
30708;BME280;17458;48.958;8.284;2023-06-22T06:24:55;100171.31;;;24.94;72.79
30708;BME280;17458;48.958;8.284;2023-06-22T06:27:39;100166.31;;;25.34;71.57
30708;BME280;17458;48.958;8.284;2023-06-22T06:30:23;100166.25;;;25.37;71.27
30708;BME280;17458;48.958;8.284;2023-06-22T06:33:07;100166.06;;;25.52;70.68
30708;BME280;17458;48.958;8.284;2023-06-22T06:35:52;100165.56;;;25.21;72.79
30708;BME280;17458;48.958;8.284;2023-06-22T06:38:36;100164.00;;;25.69;70.55
30708;BME280;17458;48.958;8.284;2023-06-22T06:41:21;100150.47;;;25.66;70.25
30708;BME280;17458;48.958;8.284;2023-06-22T06:44:05;100145.94;;;25.68;70.51
30708;BME280;17458;48.958;8.284;2023-06-22T06:46:49;100148.91;;;25.46;71.00
30708;BME280;17458;48.958;8.284;2023-06-22T06:49:34;100150.50;;;25.65;70.28
30708;BME280;17458;48.958;8.284;2023-06-22T06:52:18;100142.38;;;26.20;69.01
30708;BME280;17458;48.958;8.284;2023-06-22T06:55:04;100131.78;;;26.02;69.73
30708;BME280;17458;48.958;8.284;2023-06-22T06:57:48;100148.00;;;26.09;69.25
30708;BME280;17458;48.958;8.284;2023-06-22T07:00:33;100139.44;;;26.81;67.06
30708;BME280;17458;48.958;8.284;2023-06-22T07:03:17;100152.09;;;26.84;65.99
30708;BME280;17458;48.958;8.284;2023-06-22T07:06:01;100126.78;;;26.79;67.05
30708;BME280;17458;48.958;8.284;2023-06-22T07:08:45;100141.59;;;27.10;66.72
30708;BME280;17458;48.958;8.284;2023-06-22T07:11:29;100131.25;;;27.28;65.96
30708;BME280;17458;48.958;8.284;2023-06-22T07:14:13;100121.75;;;27.05;66.07
30708;BME280;17458;48.958;8.284;2023-06-22T07:16:58;100129.16;;;27.40;65.17
30708;BME280;17458;48.958;8.284;2023-06-22T07:19:42;100135.97;;;27.63;64.04
30708;BME280;17458;48.958;8.284;2023-06-22T07:22:26;100129.03;;;27.86;63.25
30708;BME280;17458;48.958;8.284;2023-06-22T07:25:10;100118.81;;;28.32;61.86
30708;BME280;17458;48.958;8.284;2023-06-22T07:27:58;100116.00;;;27.61;62.13
30708;BME280;17458;48.958;8.284;2023-06-22T07:30:42;100122.34;;;27.63;63.39
30708;BME280;17458;48.958;8.284;2023-06-22T07:33:26;100123.13;;;28.05;62.76
30708;BME280;17458;48.958;8.284;2023-06-22T07:36:11;100115.06;;;28.36;61.86
30708;BME280;17458;48.958;8.284;2023-06-22T07:38:56;100114.97;;;28.73;59.72
30708;BME280;17458;48.958;8.284;2023-06-22T07:41:40;100128.59;;;29.07;58.47
30708;BME280;17458;48.958;8.284;2023-06-22T07:44:27;100121.88;;;28.53;60.31
30708;BME280;17458;48.958;8.284;2023-06-22T07:47:11;100133.66;;;28.55;59.56
30708;BME280;17458;48.958;8.284;2023-06-22T07:49:59;100139.50;;;29.08;59.29
30708;BME280;17458;48.958;8.284;2023-06-22T07:52:44;100136.41;;;28.89;57.02
30708;BME280;17458;48.958;8.284;2023-06-22T07:55:28;100141.78;;;29.54;58.27
30708;BME280;17458;48.958;8.284;2023-06-22T07:58:12;100140.91;;;29.82;56.75
30708;BME280;17458;48.958;8.284;2023-06-22T08:00:56;100142.69;;;29.55;58.31
30708;BME280;17458;48.958;8.284;2023-06-22T08:03:40;100139.44;;;28.77;58.83
30708;BME280;17458;48.958;8.284;2023-06-22T08:06:24;100146.19;;;29.60;58.28
30708;BME280;17458;48.958;8.284;2023-06-22T08:09:08;100146.28;;;29.57;57.00
30708;BME280;17458;48.958;8.284;2023-06-22T08:11:52;100152.75;;;30.12;56.40
30708;BME280;17458;48.958;8.284;2023-06-22T08:14:38;100143.41;;;30.45;54.79
30708;BME280;17458;48.958;8.284;2023-06-22T08:17:23;100169.94;;;30.43;55.08
30708;BME280;17458;48.958;8.284;2023-06-22T08:20:08;100174.94;;;30.58;52.66
30708;BME280;17458;48.958;8.284;2023-06-22T08:22:58;100188.25;;;30.15;53.40
30708;BME280;17458;48.958;8.284;2023-06-22T08:25:48;100188.13;;;30.46;51.97
30708;BME280;17458;48.958;8.284;2023-06-22T08:28:34;100186.81;;;30.59;50.45
30708;BME280;17458;48.958;8.284;2023-06-22T08:31:18;100198.75;;;30.83;51.28
30708;BME280;17458;48.958;8.284;2023-06-22T08:34:03;100189.63;;;31.32;49.84
30708;BME280;17458;48.958;8.284;2023-06-22T08:36:47;100179.19;;;31.18;49.77
30708;BME280;17458;48.958;8.284;2023-06-22T08:39:36;100171.69;;;31.72;47.57
30708;BME280;17458;48.958;8.284;2023-06-22T08:42:21;100156.75;;;31.55;47.81
30708;BME280;17458;48.958;8.284;2023-06-22T08:45:05;100144.56;;;31.86;47.68
30708;BME280;17458;48.958;8.284;2023-06-22T08:47:50;100142.34;;;31.95;47.71
30708;BME280;17458;48.958;8.284;2023-06-22T08:50:33;100149.28;;;31.82;47.91
30708;BME280;17458;48.958;8.284;2023-06-22T08:53:17;100157.75;;;31.76;48.54
30708;BME280;17458;48.958;8.284;2023-06-22T08:56:01;100152.84;;;31.61;48.85
30708;BME280;17458;48.958;8.284;2023-06-22T08:58:45;100153.56;;;31.89;47.68
30708;BME280;17458;48.958;8.284;2023-06-22T09:01:29;100151.81;;;31.65;50.04
30708;BME280;17458;48.958;8.284;2023-06-22T09:04:13;100151.69;;;30.95;53.21
30708;BME280;17458;48.958;8.284;2023-06-22T09:06:58;100151.78;;;30.92;54.13
30708;BME280;17458;48.958;8.284;2023-06-22T09:09:42;100151.94;;;31.14;52.86
30708;BME280;17458;48.958;8.284;2023-06-22T09:12:26;100151.69;;;31.68;51.26
30708;BME280;17458;48.958;8.284;2023-06-22T09:15:11;100176.25;;;32.39;49.79
30708;BME280;17458;48.958;8.284;2023-06-22T09:17:54;100151.31;;;32.64;48.88
30708;BME280;17458;48.958;8.284;2023-06-22T09:20:39;100150.47;;;31.98;51.19
30708;BME280;17458;48.958;8.284;2023-06-22T09:23:23;100147.25;;;32.31;50.59
30708;BME280;17458;48.958;8.284;2023-06-22T09:26:08;100131.91;;;32.47;48.58
30708;BME280;17458;48.958;8.284;2023-06-22T09:28:52;100132.25;;;32.39;49.48
30708;BME280;17458;48.958;8.284;2023-06-22T09:31:36;100113.28;;;32.12;49.59
30708;BME280;17458;48.958;8.284;2023-06-22T09:34:20;100104.81;;;31.26;51.02
30708;BME280;17458;48.958;8.284;2023-06-22T09:37:04;100080.72;;;31.57;50.77
30708;BME280;17458;48.958;8.284;2023-06-22T09:39:48;100075.91;;;31.62;49.91
30708;BME280;17458;48.958;8.284;2023-06-22T09:42:32;100076.88;;;31.61;51.07
30708;BME280;17458;48.958;8.284;2023-06-22T09:45:16;100071.59;;;31.57;49.48
30708;BME280;17458;48.958;8.284;2023-06-22T09:48:01;100069.03;;;31.74;49.82
30708;BME280;17458;48.958;8.284;2023-06-22T09:50:44;100070.91;;;31.74;51.74
30708;BME280;17458;48.958;8.284;2023-06-22T09:53:28;100058.41;;;31.66;51.24
30708;BME280;17458;48.958;8.284;2023-06-22T09:56:12;100037.91;;;30.82;53.68
30708;BME280;17458;48.958;8.284;2023-06-22T09:58:58;100052.41;;;31.09;53.14
30708;BME280;17458;48.958;8.284;2023-06-22T10:01:42;100050.78;;;31.28;53.83
30708;BME280;17458;48.958;8.284;2023-06-22T10:04:26;100041.97;;;30.72;54.25
30708;BME280;17458;48.958;8.284;2023-06-22T10:07:10;100050.13;;;30.73;55.01
30708;BME280;17458;48.958;8.284;2023-06-22T10:09:54;100069.84;;;31.08;53.62
30708;BME280;17458;48.958;8.284;2023-06-22T10:12:45;100078.16;;;31.53;52.15
30708;BME280;17458;48.958;8.284;2023-06-22T10:15:29;100067.25;;;30.80;52.30
30708;BME280;17458;48.958;8.284;2023-06-22T10:18:13;100064.34;;;30.84;52.46
30708;BME280;17458;48.958;8.284;2023-06-22T10:20:57;100061.59;;;30.84;52.29
30708;BME280;17458;48.958;8.284;2023-06-22T10:23:41;100041.50;;;31.07;53.69
30708;BME280;17458;48.958;8.284;2023-06-22T10:26:25;100053.03;;;31.17;52.69
30708;BME280;17458;48.958;8.284;2023-06-22T10:29:12;100048.78;;;31.55;53.12
30708;BME280;17458;48.958;8.284;2023-06-22T10:31:56;100048.50;;;31.39;51.55
30708;BME280;17458;48.958;8.284;2023-06-22T10:34:40;100044.25;;;31.30;51.66
30708;BME280;17458;48.958;8.284;2023-06-22T10:37:25;100045.41;;;31.01;52.39
30708;BME280;17458;48.958;8.284;2023-06-22T10:40:10;100033.34;;;31.96;51.47
30708;BME280;17458;48.958;8.284;2023-06-22T10:42:54;100035.22;;;32.16;49.94
30708;BME280;17458;48.958;8.284;2023-06-22T10:45:38;100024.53;;;31.88;50.04
30708;BME280;17458;48.958;8.284;2023-06-22T10:48:22;100039.09;;;32.12;49.98
30708;BME280;17458;48.958;8.284;2023-06-22T10:51:06;100039.69;;;32.40;49.06
30708;BME280;17458;48.958;8.284;2023-06-22T10:53:50;100024.78;;;32.25;49.30
30708;BME280;17458;48.958;8.284;2023-06-22T10:56:34;100025.16;;;32.97;48.25
30708;BME280;17458;48.958;8.284;2023-06-22T10:59:18;100031.94;;;33.09;48.79
30708;BME280;17458;48.958;8.284;2023-06-22T11:02:05;100039.34;;;33.46;47.25
30708;BME280;17458;48.958;8.284;2023-06-22T11:04:49;100045.47;;;34.25;46.48
30708;BME280;17458;48.958;8.284;2023-06-22T11:07:33;100051.22;;;34.20;42.80
30708;BME280;17458;48.958;8.284;2023-06-22T11:10:17;100050.16;;;34.05;42.49
30708;BME280;17458;48.958;8.284;2023-06-22T11:13:01;100045.72;;;33.84;43.00
30708;BME280;17458;48.958;8.284;2023-06-22T11:15:48;100051.09;;;33.87;43.91
30708;BME280;17458;48.958;8.284;2023-06-22T11:18:32;100038.91;;;33.36;43.06
30708;BME280;17458;48.958;8.284;2023-06-22T11:21:17;100038.97;;;33.35;43.35
30708;BME280;17458;48.958;8.284;2023-06-22T11:24:01;100024.06;;;33.58;43.96
30708;BME280;17458;48.958;8.284;2023-06-22T11:26:45;100017.31;;;33.46;43.44
30708;BME280;17458;48.958;8.284;2023-06-22T11:29:30;100029.97;;;34.05;44.05
30708;BME280;17458;48.958;8.284;2023-06-22T11:32:17;100030.63;;;34.10;44.64
30708;BME280;17458;48.958;8.284;2023-06-22T11:35:01;100020.56;;;34.26;42.04
30708;BME280;17458;48.958;8.284;2023-06-22T11:37:45;100026.06;;;34.26;43.53
30708;BME280;17458;48.958;8.284;2023-06-22T11:40:29;100025.66;;;34.35;42.74
30708;BME280;17458;48.958;8.284;2023-06-22T11:43:13;100031.25;;;34.51;42.63
30708;BME280;17458;48.958;8.284;2023-06-22T11:45:59;100045.44;;;34.78;43.71
30708;BME280;17458;48.958;8.284;2023-06-22T11:48:45;100048.63;;;34.69;41.51
30708;BME280;17458;48.958;8.284;2023-06-22T11:51:29;100051.09;;;34.92;41.71
30708;BME280;17458;48.958;8.284;2023-06-22T11:54:15;100054.41;;;34.81;41.85
30708;BME280;17458;48.958;8.284;2023-06-22T11:56:59;100048.72;;;35.02;40.59
30708;BME280;17458;48.958;8.284;2023-06-22T11:59:43;100034.78;;;35.21;42.79
30708;BME280;17458;48.958;8.284;2023-06-22T12:02:27;100046.03;;;35.33;40.57
30708;BME280;17458;48.958;8.284;2023-06-22T12:05:11;100051.59;;;35.65;40.82
30708;BME280;17458;48.958;8.284;2023-06-22T12:07:56;100044.72;;;35.07;41.88
30708;BME280;17458;48.958;8.284;2023-06-22T12:10:40;100049.97;;;35.12;43.12
30708;BME280;17458;48.958;8.284;2023-06-22T12:13:24;100052.41;;;35.18;43.90
30708;BME280;17458;48.958;8.284;2023-06-22T12:16:08;100047.28;;;35.10;43.62
30708;BME280;17458;48.958;8.284;2023-06-22T12:18:52;100044.84;;;35.22;41.26
30708;BME280;17458;48.958;8.284;2023-06-22T12:21:39;100043.19;;;34.67;43.21
30708;BME280;17458;48.958;8.284;2023-06-22T12:24:24;100050.97;;;34.78;43.51
30708;BME280;17458;48.958;8.284;2023-06-22T12:27:08;100056.94;;;34.86;43.28
30708;BME280;17458;48.958;8.284;2023-06-22T12:29:54;100060.03;;;34.80;42.20
30708;BME280;17458;48.958;8.284;2023-06-22T12:32:38;100064.50;;;34.48;44.41
30708;BME280;17458;48.958;8.284;2023-06-22T12:35:21;100063.69;;;34.46;46.27
30708;BME280;17458;48.958;8.284;2023-06-22T12:38:08;100060.66;;;33.97;47.24
30708;BME280;17458;48.958;8.284;2023-06-22T12:40:53;100060.69;;;34.14;46.66
30708;BME280;17458;48.958;8.284;2023-06-22T12:43:37;100054.19;;;33.98;47.45
30708;BME280;17458;48.958;8.284;2023-06-22T12:46:23;100048.53;;;34.19;47.18
30708;BME280;17458;48.958;8.284;2023-06-22T12:49:08;100045.91;;;33.81;45.81
30708;BME280;17458;48.958;8.284;2023-06-22T12:51:52;100052.94;;;34.23;45.57
30708;BME280;17458;48.958;8.284;2023-06-22T12:54:35;100050.34;;;34.20;45.75
30708;BME280;17458;48.958;8.284;2023-06-22T12:57:19;100052.50;;;34.49;46.15
30708;BME280;17458;48.958;8.284;2023-06-22T13:00:04;100058.88;;;34.32;46.53
30708;BME280;17458;48.958;8.284;2023-06-22T13:02:49;100057.38;;;34.25;45.98
30708;BME280;17458;48.958;8.284;2023-06-22T13:05:33;100058.06;;;34.82;45.99
30708;BME280;17458;48.958;8.284;2023-06-22T13:08:18;100050.50;;;34.68;46.54
30708;BME280;17458;48.958;8.284;2023-06-22T13:11:02;100051.09;;;34.92;44.75
30708;BME280;17458;48.958;8.284;2023-06-22T13:13:46;100049.72;;;35.49;43.75
30708;BME280;17458;48.958;8.284;2023-06-22T13:16:30;100051.34;;;34.36;45.63
30708;BME280;17458;48.958;8.284;2023-06-22T13:19:14;100054.88;;;34.72;43.94
30708;BME280;17458;48.958;8.284;2023-06-22T13:21:59;100043.31;;;34.48;44.19
30708;BME280;17458;48.958;8.284;2023-06-22T13:24:43;100037.31;;;34.40;43.61
30708;BME280;17458;48.958;8.284;2023-06-22T13:27:27;100027.13;;;34.06;44.64
30708;BME280;17458;48.958;8.284;2023-06-22T13:30:11;100018.03;;;33.87;44.72
30708;BME280;17458;48.958;8.284;2023-06-22T13:32:55;100013.81;;;34.51;44.41
30708;BME280;17458;48.958;8.284;2023-06-22T13:35:39;100013.69;;;34.87;42.61
30708;BME280;17458;48.958;8.284;2023-06-22T13:38:26;100017.09;;;34.57;43.07
30708;BME280;17458;48.958;8.284;2023-06-22T13:41:10;100030.66;;;35.12;42.71
30708;BME280;17458;48.958;8.284;2023-06-22T13:43:54;100033.88;;;34.87;42.58
30708;BME280;17458;48.958;8.284;2023-06-22T13:46:38;100030.84;;;35.89;41.01
30708;BME280;17458;48.958;8.284;2023-06-22T13:49:22;100003.84;;;35.14;44.09
30708;BME280;17458;48.958;8.284;2023-06-22T13:52:06;99999.50;;;34.77;43.01
30708;BME280;17458;48.958;8.284;2023-06-22T13:54:54;100021.53;;;33.91;44.10
30708;BME280;17458;48.958;8.284;2023-06-22T13:57:38;100037.00;;;33.56;46.15
30708;BME280;17458;48.958;8.284;2023-06-22T14:00:22;100017.78;;;33.73;46.08
30708;BME280;17458;48.958;8.284;2023-06-22T14:03:06;100015.19;;;33.14;46.65
30708;BME280;17458;48.958;8.284;2023-06-22T14:05:51;100002.03;;;33.20;48.45
30708;BME280;17458;48.958;8.284;2023-06-22T14:08:37;99996.25;;;33.07;48.02
30708;BME280;17458;48.958;8.284;2023-06-22T14:11:21;100011.41;;;32.57;49.21
30708;BME280;17458;48.958;8.284;2023-06-22T14:14:06;100022.88;;;32.27;49.33
30708;BME280;17458;48.958;8.284;2023-06-22T14:16:50;100038.06;;;31.92;49.56
30708;BME280;17458;48.958;8.284;2023-06-22T14:19:34;100035.44;;;32.11;48.70
30708;BME280;17458;48.958;8.284;2023-06-22T14:22:19;99980.63;;;32.08;48.71
30708;BME280;17458;48.958;8.284;2023-06-22T14:25:04;99960.63;;;31.84;51.12
30708;BME280;17458;48.958;8.284;2023-06-22T14:27:49;99970.13;;;31.54;53.27